Hlavní strana
METAR-TAF:

METAR-TAF

Letiště :

Mezinárodní letiště Dubaj

Dubaj, Spojené arabské emiráty

zeměpisná šířka: 25-15-10N, zeměpisná délka: 055-21-52E, výška: 8 m

Aktuální stav počasí

Zpráva byla vytvořena před 56 minutami, v 08:00 UTC
Západní vítr 9 kt, proměnlivý mezi západojihozápadním a západoseverozápadním
Teplota 39°C
Vlhkost vzduchu 54%
Tlak 993 hPa
Viditelnost 10 km a více
Žádná oblačnost pod 1500 m, nevyskytují se cumulonimby.

METAR: OMDB 160800Z 27009KT 240V300 CAVOK 39/28 Q0993 NOSIG

Čas: 12:56 (08:56 UTC)

Předpověď počasí

Zpráva byla vytvořena před 3 hodinami a 56 minutami, v 05:00 UTC
Předpověď platná od 16 v 06 UTC do 17 v 12 UTC
Jihojihozápadní vítr 8 kt
Viditelnost: 8000 m
Změna
od 16 v 06 UTC do 16 v 08 UTC
Západní vítr 15 kt
Změna
od 16 v 16 UTC do 16 v 18 UTC
Jihojihozápadní vítr 7 kt
Změna
od 17 v 06 UTC do 17 v 08 UTC
Západní vítr 12 kt

TAF: OMDB 160500Z 1606/1712 21008KT 8000 NSC BECMG 1606/1608 27015KT BECMG 1616/1618 20007KT BECMG 1706/1708 28012KT

Stav a předpovědi počasí z více než 4 000 letišť (zprávy METAR a TAF).

Červené a žluté tečky na mapě představují dostupné meteorologické stanice.

Když kurzor umístíte na tečku, zobrazí se název stanice.

Pak kliknutím zobrazíte stav a předpověď počasí.

Chcete-li změnit mapu, kliknutím na zelené tlačítko se znaménkem +mapu přiblížíte, kliknutím na zelené tlačítko se znaménkem – mapu oddálíte a kliknutím na zelené šipky přejdete na sousední mapy.


METAR-TAF: